Terminal Aerodrome Forecast
Issued by NWS

Home | Current Version | Previous Version | Text Only | Print | Product List | Glossary On
Versions: 1 2 3 4 5 6 7 8 9 10 11 12 13 14 15 16 17 18 19 20 21 22 23 24 25
833
FTUS43 KILX 052328
TAFBMI
TAF
KBMI 052328Z 0600/0624 VRB03KT P6SM SCT025 BKN080
     FM061000 19006KT P6SM SCT020 BKN040
     FM061600 23010KT P6SM SCT040=

USA.gov is the U.S. government's official web portal to all federal, state and local government web resources and services.